sensor_id;sensor_type;location;lat;lon;timestamp;P1;durP1;ratioP1;P2;durP2;ratioP2
40991;SDS011;29633;49.168;9.848;2022-08-19T00:01:47;12.10;;;10.85;;
40991;SDS011;29633;49.168;9.848;2022-08-19T00:04:16;12.75;;;11.45;;
40991;SDS011;29633;49.168;9.848;2022-08-19T00:06:45;11.73;;;10.68;;
40991;SDS011;29633;49.168;9.848;2022-08-19T00:09:12;12.02;;;10.93;;
40991;SDS011;29633;49.168;9.848;2022-08-19T00:11:41;11.07;;;10.07;;
40991;SDS011;29633;49.168;9.848;2022-08-19T00:14:09;12.57;;;11.38;;
40991;SDS011;29633;49.168;9.848;2022-08-19T00:16:38;13.98;;;12.50;;
40991;SDS011;29633;49.168;9.848;2022-08-19T00:19:06;11.40;;;10.38;;
40991;SDS011;29633;49.168;9.848;2022-08-19T00:21:33;11.95;;;10.85;;
40991;SDS011;29633;49.168;9.848;2022-08-19T00:24:03;12.57;;;11.38;;
40991;SDS011;29633;49.168;9.848;2022-08-19T00:26:30;12.75;;;11.45;;
40991;SDS011;29633;49.168;9.848;2022-08-19T00:28:56;12.50;;;11.23;;
40991;SDS011;29633;49.168;9.848;2022-08-19T00:31:21;13.30;;;11.82;;
40991;SDS011;29633;49.168;9.848;2022-08-19T00:33:47;12.27;;;11.13;;
40991;SDS011;29633;49.168;9.848;2022-08-19T00:36:15;11.82;;;10.73;;
40991;SDS011;29633;49.168;9.848;2022-08-19T00:38:42;12.48;;;11.40;;
40991;SDS011;29633;49.168;9.848;2022-08-19T00:41:08;12.68;;;11.48;;
40991;SDS011;29633;49.168;9.848;2022-08-19T00:43:39;13.60;;;12.40;;
40991;SDS011;29633;49.168;9.848;2022-08-19T00:46:06;13.35;;;12.15;;
40991;SDS011;29633;49.168;9.848;2022-08-19T00:48:32;13.27;;;12.13;;
40991;SDS011;29633;49.168;9.848;2022-08-19T00:50:59;13.48;;;12.18;;
40991;SDS011;29633;49.168;9.848;2022-08-19T00:53:26;13.02;;;11.70;;
40991;SDS011;29633;49.168;9.848;2022-08-19T00:55:56;12.10;;;11.02;;
40991;SDS011;29633;49.168;9.848;2022-08-19T00:58:27;13.23;;;12.02;;
40991;SDS011;29633;49.168;9.848;2022-08-19T01:00:55;12.95;;;11.48;;
40991;SDS011;29633;49.168;9.848;2022-08-19T01:03:21;13.38;;;12.18;;
40991;SDS011;29633;49.168;9.848;2022-08-19T01:05:48;13.35;;;12.05;;
40991;SDS011;29633;49.168;9.848;2022-08-19T01:08:17;12.73;;;11.52;;
40991;SDS011;29633;49.168;9.848;2022-08-19T01:10:45;13.65;;;12.27;;
40991;SDS011;29633;49.168;9.848;2022-08-19T01:13:25;12.77;;;11.48;;
40991;SDS011;29633;49.168;9.848;2022-08-19T01:15:56;12.73;;;11.43;;
40991;SDS011;29633;49.168;9.848;2022-08-19T01:18:29;13.07;;;11.80;;
40991;SDS011;29633;49.168;9.848;2022-08-19T01:20:58;13.65;;;11.45;;
40991;SDS011;29633;49.168;9.848;2022-08-19T01:23:43;12.30;;;11.20;;
40991;SDS011;29633;49.168;9.848;2022-08-19T01:26:11;12.05;;;10.93;;
40991;SDS011;29633;49.168;9.848;2022-08-19T01:28:47;11.32;;;10.23;;
40991;SDS011;29633;49.168;9.848;2022-08-19T01:31:19;11.40;;;10.35;;
40991;SDS011;29633;49.168;9.848;2022-08-19T01:33:50;12.95;;;11.35;;
40991;SDS011;29633;49.168;9.848;2022-08-19T01:36:23;12.40;;;11.20;;
40991;SDS011;29633;49.168;9.848;2022-08-19T01:38:57;12.65;;;11.40;;
40991;SDS011;29633;49.168;9.848;2022-08-19T01:41:25;11.98;;;10.77;;
40991;SDS011;29633;49.168;9.848;2022-08-19T01:43:51;11.50;;;10.50;;
40991;SDS011;29633;49.168;9.848;2022-08-19T01:46:18;12.20;;;11.15;;
40991;SDS011;29633;49.168;9.848;2022-08-19T01:48:44;12.85;;;11.60;;
40991;SDS011;29633;49.168;9.848;2022-08-19T01:51:12;12.00;;;10.85;;
40991;SDS011;29633;49.168;9.848;2022-08-19T01:53:39;12.07;;;10.95;;
40991;SDS011;29633;49.168;9.848;2022-08-19T01:56:05;12.95;;;11.48;;
40991;SDS011;29633;49.168;9.848;2022-08-19T01:58:33;12.60;;;11.20;;
40991;SDS011;29633;49.168;9.848;2022-08-19T02:01:06;12.82;;;11.48;;
40991;SDS011;29633;49.168;9.848;2022-08-19T02:03:32;12.15;;;10.88;;
40991;SDS011;29633;49.168;9.848;2022-08-19T02:05:59;11.38;;;10.38;;
40991;SDS011;29633;49.168;9.848;2022-08-19T02:08:27;12.40;;;11.15;;
40991;SDS011;29633;49.168;9.848;2022-08-19T02:10:55;11.85;;;10.63;;
40991;SDS011;29633;49.168;9.848;2022-08-19T02:13:21;12.48;;;11.18;;
40991;SDS011;29633;49.168;9.848;2022-08-19T02:15:48;12.68;;;11.40;;
40991;SDS011;29633;49.168;9.848;2022-08-19T02:18:14;11.73;;;10.55;;
40991;SDS011;29633;49.168;9.848;2022-08-19T02:20:40;11.65;;;10.60;;
40991;SDS011;29633;49.168;9.848;2022-08-19T02:23:08;11.43;;;10.38;;
40991;SDS011;29633;49.168;9.848;2022-08-19T02:25:35;12.00;;;10.80;;
40991;SDS011;29633;49.168;9.848;2022-08-19T02:28:02;12.32;;;11.02;;
40991;SDS011;29633;49.168;9.848;2022-08-19T02:30:28;12.05;;;10.93;;
40991;SDS011;29633;49.168;9.848;2022-08-19T02:32:54;12.57;;;11.25;;
40991;SDS011;29633;49.168;9.848;2022-08-19T02:35:20;12.05;;;10.88;;
40991;SDS011;29633;49.168;9.848;2022-08-19T02:37:45;11.88;;;10.85;;
40991;SDS011;29633;49.168;9.848;2022-08-19T02:40:31;11.82;;;10.70;;
40991;SDS011;29633;49.168;9.848;2022-08-19T02:42:59;12.35;;;11.13;;
40991;SDS011;29633;49.168;9.848;2022-08-19T02:45:27;12.18;;;10.95;;
40991;SDS011;29633;49.168;9.848;2022-08-19T02:47:57;11.87;;;10.70;;
40991;SDS011;29633;49.168;9.848;2022-08-19T02:50:23;11.30;;;10.30;;
40991;SDS011;29633;49.168;9.848;2022-08-19T02:52:49;12.13;;;10.98;;
40991;SDS011;29633;49.168;9.848;2022-08-19T02:55:15;11.07;;;10.05;;
40991;SDS011;29633;49.168;9.848;2022-08-19T02:57:40;11.98;;;10.88;;
40991;SDS011;29633;49.168;9.848;2022-08-19T03:00:07;11.73;;;10.63;;
40991;SDS011;29633;49.168;9.848;2022-08-19T03:02:37;12.10;;;10.57;;
40991;SDS011;29633;49.168;9.848;2022-08-19T03:05:04;12.20;;;10.55;;
40991;SDS011;29633;49.168;9.848;2022-08-19T03:07:31;11.88;;;10.60;;
40991;SDS011;29633;49.168;9.848;2022-08-19T03:09:57;12.45;;;11.25;;
40991;SDS011;29633;49.168;9.848;2022-08-19T03:12:23;11.63;;;10.43;;
40991;SDS011;29633;49.168;9.848;2022-08-19T03:14:49;11.52;;;10.50;;
40991;SDS011;29633;49.168;9.848;2022-08-19T03:17:15;11.77;;;10.68;;
40991;SDS011;29633;49.168;9.848;2022-08-19T03:19:41;12.68;;;11.48;;
40991;SDS011;29633;49.168;9.848;2022-08-19T03:22:08;11.85;;;10.65;;
40991;SDS011;29633;49.168;9.848;2022-08-19T03:24:34;12.10;;;10.95;;
40991;SDS011;29633;49.168;9.848;2022-08-19T03:27:00;11.88;;;10.32;;
40991;SDS011;29633;49.168;9.848;2022-08-19T03:29:27;11.70;;;10.50;;
40991;SDS011;29633;49.168;9.848;2022-08-19T03:31:54;11.40;;;10.20;;
40991;SDS011;29633;49.168;9.848;2022-08-19T03:34:24;11.57;;;10.57;;
40991;SDS011;29633;49.168;9.848;2022-08-19T03:36:56;12.07;;;10.88;;
40991;SDS011;29633;49.168;9.848;2022-08-19T03:39:26;11.63;;;10.43;;
40991;SDS011;29633;49.168;9.848;2022-08-19T03:41:52;11.88;;;10.75;;
40991;SDS011;29633;49.168;9.848;2022-08-19T03:44:22;11.90;;;10.70;;
40991;SDS011;29633;49.168;9.848;2022-08-19T03:46:49;11.65;;;10.45;;
40991;SDS011;29633;49.168;9.848;2022-08-19T03:49:22;11.98;;;10.88;;
40991;SDS011;29633;49.168;9.848;2022-08-19T03:51:52;12.93;;;10.88;;
40991;SDS011;29633;49.168;9.848;2022-08-19T03:54:20;11.45;;;10.40;;
40991;SDS011;29633;49.168;9.848;2022-08-19T03:56:49;11.55;;;10.35;;
40991;SDS011;29633;49.168;9.848;2022-08-19T03:59:19;12.23;;;11.02;;
40991;SDS011;29633;49.168;9.848;2022-08-19T04:01:56;11.70;;;10.50;;
40991;SDS011;29633;49.168;9.848;2022-08-19T04:04:26;12.02;;;10.98;;
40991;SDS011;29633;49.168;9.848;2022-08-19T04:06:52;12.45;;;11.20;;
40991;SDS011;29633;49.168;9.848;2022-08-19T04:09:18;12.15;;;11.05;;
40991;SDS011;29633;49.168;9.848;2022-08-19T04:11:47;11.30;;;10.30;;
40991;SDS011;29633;49.168;9.848;2022-08-19T04:14:19;13.65;;;11.23;;
40991;SDS011;29633;49.168;9.848;2022-08-19T04:16:49;13.80;;;11.50;;
40991;SDS011;29633;49.168;9.848;2022-08-19T04:19:17;12.32;;;11.23;;
40991;SDS011;29633;49.168;9.848;2022-08-19T04:21:44;12.68;;;11.38;;
40991;SDS011;29633;49.168;9.848;2022-08-19T04:24:13;12.52;;;11.32;;
40991;SDS011;29633;49.168;9.848;2022-08-19T04:26:39;12.02;;;10.93;;
40991;SDS011;29633;49.168;9.848;2022-08-19T04:29:09;13.15;;;11.82;;
40991;SDS011;29633;49.168;9.848;2022-08-19T04:31:39;13.65;;;12.18;;
40991;SDS011;29633;49.168;9.848;2022-08-19T04:34:07;13.18;;;11.88;;
40991;SDS011;29633;49.168;9.848;2022-08-19T04:36:36;15.23;;;11.88;;
40991;SDS011;29633;49.168;9.848;2022-08-19T04:39:08;13.32;;;12.07;;
40991;SDS011;29633;49.168;9.848;2022-08-19T04:41:40;13.50;;;12.23;;
40991;SDS011;29633;49.168;9.848;2022-08-19T04:44:25;13.02;;;11.73;;
40991;SDS011;29633;49.168;9.848;2022-08-19T04:46:51;14.85;;;12.73;;
40991;SDS011;29633;49.168;9.848;2022-08-19T04:49:21;13.68;;;12.05;;
40991;SDS011;29633;49.168;9.848;2022-08-19T04:51:48;15.27;;;11.32;;
40991;SDS011;29633;49.168;9.848;2022-08-19T04:54:16;13.30;;;12.07;;
40991;SDS011;29633;49.168;9.848;2022-08-19T04:56:48;14.35;;;11.18;;
40991;SDS011;29633;49.168;9.848;2022-08-19T04:59:15;13.45;;;12.25;;
40991;SDS011;29633;49.168;9.848;2022-08-19T05:01:43;13.02;;;11.63;;
40991;SDS011;29633;49.168;9.848;2022-08-19T05:04:13;12.63;;;11.10;;
40991;SDS011;29633;49.168;9.848;2022-08-19T05:06:39;13.00;;;11.68;;
40991;SDS011;29633;49.168;9.848;2022-08-19T05:09:05;15.05;;;12.02;;
40991;SDS011;29633;49.168;9.848;2022-08-19T05:11:32;12.82;;;11.63;;
40991;SDS011;29633;49.168;9.848;2022-08-19T05:14:05;13.80;;;11.90;;
40991;SDS011;29633;49.168;9.848;2022-08-19T05:16:32;13.82;;;11.73;;
40991;SDS011;29633;49.168;9.848;2022-08-19T05:18:57;12.85;;;11.65;;
40991;SDS011;29633;49.168;9.848;2022-08-19T05:21:42;14.05;;;11.45;;
40991;SDS011;29633;49.168;9.848;2022-08-19T05:24:27;13.20;;;11.90;;
40991;SDS011;29633;49.168;9.848;2022-08-19T05:26:54;13.38;;;11.98;;
40991;SDS011;29633;49.168;9.848;2022-08-19T05:29:25;13.80;;;11.23;;
40991;SDS011;29633;49.168;9.848;2022-08-19T05:31:52;11.60;;;10.52;;
40991;SDS011;29633;49.168;9.848;2022-08-19T05:34:20;12.40;;;11.27;;
40991;SDS011;29633;49.168;9.848;2022-08-19T05:36:50;12.77;;;11.55;;
40991;SDS011;29633;49.168;9.848;2022-08-19T05:39:22;13.10;;;11.70;;
40991;SDS011;29633;49.168;9.848;2022-08-19T05:41:55;13.73;;;12.32;;
40991;SDS011;29633;49.168;9.848;2022-08-19T05:44:24;13.07;;;11.77;;
40991;SDS011;29633;49.168;9.848;2022-08-19T05:46:52;13.85;;;12.00;;
40991;SDS011;29633;49.168;9.848;2022-08-19T05:49:18;13.20;;;11.90;;
40991;SDS011;29633;49.168;9.848;2022-08-19T05:51:48;12.80;;;11.57;;
40991;SDS011;29633;49.168;9.848;2022-08-19T05:54:14;14.65;;;12.07;;
40991;SDS011;29633;49.168;9.848;2022-08-19T05:56:41;13.10;;;11.80;;
40991;SDS011;29633;49.168;9.848;2022-08-19T05:59:08;13.05;;;11.75;;
40991;SDS011;29633;49.168;9.848;2022-08-19T06:01:39;13.65;;;12.15;;
40991;SDS011;29633;49.168;9.848;2022-08-19T06:04:08;13.02;;;11.77;;
40991;SDS011;29633;49.168;9.848;2022-08-19T06:06:34;13.63;;;12.23;;
40991;SDS011;29633;49.168;9.848;2022-08-19T06:09:05;14.30;;;12.85;;
40991;SDS011;29633;49.168;9.848;2022-08-19T06:14:11;13.80;;;12.52;;
40991;SDS011;29633;49.168;9.848;2022-08-19T06:16:41;14.70;;;12.90;;
40991;SDS011;29633;49.168;9.848;2022-08-19T06:19:09;14.05;;;12.40;;
40991;SDS011;29633;49.168;9.848;2022-08-19T06:21:39;12.93;;;11.63;;
40991;SDS011;29633;49.168;9.848;2022-08-19T06:24:08;13.88;;;12.25;;
40991;SDS011;29633;49.168;9.848;2022-08-19T06:26:40;15.23;;;13.03;;
40991;SDS011;29633;49.168;9.848;2022-08-19T06:29:10;13.55;;;12.25;;
40991;SDS011;29633;49.168;9.848;2022-08-19T06:31:40;13.93;;;12.50;;
40991;SDS011;29633;49.168;9.848;2022-08-19T06:34:08;13.65;;;12.35;;
40991;SDS011;29633;49.168;9.848;2022-08-19T06:36:37;13.05;;;11.82;;
40991;SDS011;29633;49.168;9.848;2022-08-19T06:39:15;13.52;;;12.30;;
40991;SDS011;29633;49.168;9.848;2022-08-19T06:41:45;14.93;;;13.35;;
40991;SDS011;29633;49.168;9.848;2022-08-19T06:44:14;14.50;;;11.73;;
40991;SDS011;29633;49.168;9.848;2022-08-19T06:46:41;13.23;;;11.93;;
40991;SDS011;29633;49.168;9.848;2022-08-19T06:49:07;13.40;;;12.00;;
40991;SDS011;29633;49.168;9.848;2022-08-19T06:51:36;13.07;;;11.77;;
40991;SDS011;29633;49.168;9.848;2022-08-19T06:54:03;13.02;;;11.73;;
40991;SDS011;29633;49.168;9.848;2022-08-19T06:56:30;13.77;;;12.38;;
40991;SDS011;29633;49.168;9.848;2022-08-19T06:59:06;13.20;;;11.90;;
40991;SDS011;29633;49.168;9.848;2022-08-19T07:01:37;13.13;;;11.73;;
40991;SDS011;29633;49.168;9.848;2022-08-19T07:04:11;13.02;;;11.73;;
40991;SDS011;29633;49.168;9.848;2022-08-19T07:06:42;15.23;;;12.43;;
40991;SDS011;29633;49.168;9.848;2022-08-19T07:09:09;13.25;;;12.00;;
40991;SDS011;29633;49.168;9.848;2022-08-19T07:14:18;12.40;;;11.13;;
40991;SDS011;29633;49.168;9.848;2022-08-19T07:16:48;12.43;;;11.23;;
40991;SDS011;29633;49.168;9.848;2022-08-19T07:19:16;13.40;;;12.00;;
40991;SDS011;29633;49.168;9.848;2022-08-19T07:21:44;13.95;;;11.70;;
40991;SDS011;29633;49.168;9.848;2022-08-19T07:24:12;12.70;;;11.27;;
40991;SDS011;29633;49.168;9.848;2022-08-19T07:26:39;13.52;;;12.15;;
40991;SDS011;29633;49.168;9.848;2022-08-19T07:29:08;12.77;;;11.48;;
40991;SDS011;29633;49.168;9.848;2022-08-19T07:31:35;12.07;;;10.93;;
40991;SDS011;29633;49.168;9.848;2022-08-19T07:34:02;13.38;;;11.60;;
40991;SDS011;29633;49.168;9.848;2022-08-19T07:36:31;13.20;;;11.32;;
40991;SDS011;29633;49.168;9.848;2022-08-19T07:39:02;12.40;;;11.27;;
40991;SDS011;29633;49.168;9.848;2022-08-19T07:41:55;13.00;;;10.90;;
40991;SDS011;29633;49.168;9.848;2022-08-19T07:44:24;12.25;;;11.05;;
40991;SDS011;29633;49.168;9.848;2022-08-19T07:46:51;12.50;;;11.27;;
40991;SDS011;29633;49.168;9.848;2022-08-19T07:49:20;12.93;;;11.63;;
40991;SDS011;29633;49.168;9.848;2022-08-19T07:51:49;13.15;;;11.63;;
40991;SDS011;29633;49.168;9.848;2022-08-19T07:54:17;12.32;;;11.05;;
40991;SDS011;29633;49.168;9.848;2022-08-19T07:56:44;12.68;;;11.48;;
40991;SDS011;29633;49.168;9.848;2022-08-19T07:59:10;12.75;;;11.27;;
40991;SDS011;29633;49.168;9.848;2022-08-19T08:01:36;11.90;;;10.75;;
40991;SDS011;29633;49.168;9.848;2022-08-19T08:04:05;12.15;;;10.95;;
40991;SDS011;29633;49.168;9.848;2022-08-19T08:06:51;12.43;;;11.13;;
40991;SDS011;29633;49.168;9.848;2022-08-19T08:09:37;11.88;;;10.57;;
40991;SDS011;29633;49.168;9.848;2022-08-19T08:12:07;12.35;;;10.68;;
40991;SDS011;29633;49.168;9.848;2022-08-19T08:14:47;11.98;;;10.85;;
40991;SDS011;29633;49.168;9.848;2022-08-19T08:17:17;11.80;;;10.55;;
40991;SDS011;29633;49.168;9.848;2022-08-19T08:19:46;11.57;;;10.43;;
40991;SDS011;29633;49.168;9.848;2022-08-19T08:22:14;11.98;;;10.77;;
40991;SDS011;29633;49.168;9.848;2022-08-19T08:25:14;12.52;;;11.23;;
40991;SDS011;29633;49.168;9.848;2022-08-19T08:27:44;11.20;;;10.10;;
40991;SDS011;29633;49.168;9.848;2022-08-19T08:30:13;11.95;;;10.77;;
40991;SDS011;29633;49.168;9.848;2022-08-19T08:32:41;11.27;;;10.13;;
40991;SDS011;29633;49.168;9.848;2022-08-19T08:35:09;11.45;;;10.25;;
40991;SDS011;29633;49.168;9.848;2022-08-19T08:37:38;11.63;;;10.57;;
40991;SDS011;29633;49.168;9.848;2022-08-19T08:40:05;11.52;;;10.38;;
40991;SDS011;29633;49.168;9.848;2022-08-19T08:46:01;11.77;;;10.55;;
40991;SDS011;29633;49.168;9.848;2022-08-19T08:48:44;10.80;;;9.63;;
40991;SDS011;29633;49.168;9.848;2022-08-19T08:51:28;12.05;;;9.82;;
40991;SDS011;29633;49.168;9.848;2022-08-19T08:54:07;11.27;;;9.98;;
40991;SDS011;29633;49.168;9.848;2022-08-19T08:56:38;12.57;;;10.73;;
40991;SDS011;29633;49.168;9.848;2022-08-19T08:59:10;11.65;;;10.52;;
40991;SDS011;29633;49.168;9.848;2022-08-19T09:01:42;11.80;;;10.60;;
40991;SDS011;29633;49.168;9.848;2022-08-19T09:04:08;11.23;;;10.13;;
40991;SDS011;29633;49.168;9.848;2022-08-19T09:09:30;14.65;;;9.82;;
40991;SDS011;29633;49.168;9.848;2022-08-19T09:17:15;10.23;;;9.23;;
40991;SDS011;29633;49.168;9.848;2022-08-19T09:22:19;9.98;;;9.13;;
40991;SDS011;29633;49.168;9.848;2022-08-19T09:24:47;10.73;;;9.63;;
40991;SDS011;29633;49.168;9.848;2022-08-19T09:27:17;10.98;;;9.75;;
40991;SDS011;29633;49.168;9.848;2022-08-19T09:29:45;10.32;;;9.43;;
40991;SDS011;29633;49.168;9.848;2022-08-19T09:32:13;10.07;;;9.18;;
40991;SDS011;29633;49.168;9.848;2022-08-19T09:34:39;10.57;;;9.50;;
40991;SDS011;29633;49.168;9.848;2022-08-19T09:37:06;9.93;;;8.93;;
40991;SDS011;29633;49.168;9.848;2022-08-19T09:39:32;10.02;;;9.07;;
40991;SDS011;29633;49.168;9.848;2022-08-19T09:41:58;10.25;;;9.18;;
40991;SDS011;29633;49.168;9.848;2022-08-19T09:44:24;9.52;;;8.68;;
40991;SDS011;29633;49.168;9.848;2022-08-19T09:46:50;10.13;;;9.20;;
40991;SDS011;29633;49.168;9.848;2022-08-19T09:49:16;10.93;;;9.70;;
40991;SDS011;29633;49.168;9.848;2022-08-19T09:51:44;9.98;;;8.98;;
40991;SDS011;29633;49.168;9.848;2022-08-19T09:54:14;9.32;;;8.40;;
40991;SDS011;29633;49.168;9.848;2022-08-19T09:56:39;12.50;;;8.98;;
40991;SDS011;29633;49.168;9.848;2022-08-19T09:59:05;10.60;;;9.50;;
40991;SDS011;29633;49.168;9.848;2022-08-19T10:01:31;10.15;;;8.88;;
40991;SDS011;29633;49.168;9.848;2022-08-19T10:03:58;10.95;;;8.93;;
40991;SDS011;29633;49.168;9.848;2022-08-19T10:06:26;9.35;;;8.55;;
40991;SDS011;29633;49.168;9.848;2022-08-19T10:08:58;9.55;;;8.55;;
40991;SDS011;29633;49.168;9.848;2022-08-19T10:11:24;9.43;;;8.68;;
40991;SDS011;29633;49.168;9.848;2022-08-19T10:13:51;9.90;;;8.90;;
40991;SDS011;29633;49.168;9.848;2022-08-19T10:16:18;10.40;;;9.40;;
40991;SDS011;29633;49.168;9.848;2022-08-19T10:18:47;9.70;;;8.70;;
40991;SDS011;29633;49.168;9.848;2022-08-19T10:21:18;9.38;;;8.55;;
40991;SDS011;29633;49.168;9.848;2022-08-19T10:23:51;9.48;;;8.43;;
40991;SDS011;29633;49.168;9.848;2022-08-19T10:26:24;9.90;;;8.90;;
40991;SDS011;29633;49.168;9.848;2022-08-19T10:28:57;10.02;;;8.80;;
40991;SDS011;29633;49.168;9.848;2022-08-19T10:31:26;9.45;;;8.65;;
40991;SDS011;29633;49.168;9.848;2022-08-19T10:33:54;10.32;;;9.23;;
40991;SDS011;29633;49.168;9.848;2022-08-19T10:36:24;9.43;;;8.55;;
40991;SDS011;29633;49.168;9.848;2022-08-19T10:38:55;9.43;;;8.63;;
40991;SDS011;29633;49.168;9.848;2022-08-19T10:41:27;11.02;;;9.95;;
40991;SDS011;29633;49.168;9.848;2022-08-19T10:44:01;10.40;;;9.40;;
40991;SDS011;29633;49.168;9.848;2022-08-19T10:46:34;9.00;;;8.18;;
40991;SDS011;29633;49.168;9.848;2022-08-19T10:49:03;9.38;;;8.43;;
40991;SDS011;29633;49.168;9.848;2022-08-19T10:51:30;9.57;;;8.80;;
40991;SDS011;29633;49.168;9.848;2022-08-19T10:54:16;10.15;;;9.15;;
40991;SDS011;29633;49.168;9.848;2022-08-19T10:56:42;12.63;;;8.95;;
40991;SDS011;29633;49.168;9.848;2022-08-19T10:59:22;10.13;;;8.90;;
40991;SDS011;29633;49.168;9.848;2022-08-19T11:01:52;10.18;;;9.38;;
40991;SDS011;29633;49.168;9.848;2022-08-19T11:04:23;9.63;;;8.30;;
40991;SDS011;29633;49.168;9.848;2022-08-19T11:06:49;9.32;;;8.45;;
40991;SDS011;29633;49.168;9.848;2022-08-19T11:09:15;8.35;;;7.72;;
40991;SDS011;29633;49.168;9.848;2022-08-19T11:11:44;10.60;;;9.57;;
40991;SDS011;29633;49.168;9.848;2022-08-19T11:14:13;9.95;;;9.05;;
40991;SDS011;29633;49.168;9.848;2022-08-19T11:16:43;9.50;;;8.63;;
40991;SDS011;29633;49.168;9.848;2022-08-19T11:19:10;9.88;;;8.88;;
40991;SDS011;29633;49.168;9.848;2022-08-19T11:21:41;9.88;;;8.88;;
40991;SDS011;29633;49.168;9.848;2022-08-19T11:24:17;11.07;;;8.43;;
40991;SDS011;29633;49.168;9.848;2022-08-19T11:26:50;9.95;;;8.95;;
40991;SDS011;29633;49.168;9.848;2022-08-19T11:29:21;9.50;;;8.60;;
40991;SDS011;29633;49.168;9.848;2022-08-19T11:31:50;9.98;;;9.00;;
40991;SDS011;29633;49.168;9.848;2022-08-19T11:34:17;10.65;;;9.05;;
40991;SDS011;29633;49.168;9.848;2022-08-19T11:36:47;10.02;;;9.13;;
40991;SDS011;29633;49.168;9.848;2022-08-19T11:39:16;9.27;;;8.48;;
40991;SDS011;29633;49.168;9.848;2022-08-19T11:41:46;8.55;;;7.68;;
40991;SDS011;29633;49.168;9.848;2022-08-19T11:44:12;9.48;;;8.57;;
40991;SDS011;29633;49.168;9.848;2022-08-19T11:46:39;8.88;;;8.02;;
40991;SDS011;29633;49.168;9.848;2022-08-19T11:49:11;9.65;;;8.82;;
40991;SDS011;29633;49.168;9.848;2022-08-19T11:51:40;10.25;;;9.30;;
40991;SDS011;29633;49.168;9.848;2022-08-19T11:54:08;12.73;;;11.52;;
40991;SDS011;29633;49.168;9.848;2022-08-19T11:56:36;10.85;;;9.77;;
40991;SDS011;29633;49.168;9.848;2022-08-19T11:59:03;12.18;;;9.85;;
40991;SDS011;29633;49.168;9.848;2022-08-19T12:01:29;10.82;;;9.80;;
40991;SDS011;29633;49.168;9.848;2022-08-19T12:03:56;10.30;;;9.35;;
40991;SDS011;29633;49.168;9.848;2022-08-19T12:06:24;10.27;;;9.35;;
40991;SDS011;29633;49.168;9.848;2022-08-19T12:08:55;11.68;;;10.57;;
40991;SDS011;29633;49.168;9.848;2022-08-19T12:11:22;11.93;;;10.82;;
40991;SDS011;29633;49.168;9.848;2022-08-19T12:13:48;12.13;;;9.50;;
40991;SDS011;29633;49.168;9.848;2022-08-19T12:16:16;10.82;;;9.75;;
40991;SDS011;29633;49.168;9.848;2022-08-19T12:18:46;11.90;;;10.63;;
40991;SDS011;29633;49.168;9.848;2022-08-19T12:21:15;10.65;;;9.65;;
40991;SDS011;29633;49.168;9.848;2022-08-19T12:23:46;10.75;;;9.35;;
40991;SDS011;29633;49.168;9.848;2022-08-19T12:26:14;9.38;;;8.57;;
40991;SDS011;29633;49.168;9.848;2022-08-19T12:28:41;10.30;;;9.35;;
40991;SDS011;29633;49.168;9.848;2022-08-19T12:31:07;9.70;;;8.88;;
40991;SDS011;29633;49.168;9.848;2022-08-19T12:33:36;9.48;;;8.57;;
40991;SDS011;29633;49.168;9.848;2022-08-19T12:36:04;10.48;;;9.40;;
40991;SDS011;29633;49.168;9.848;2022-08-19T12:38:33;11.63;;;10.45;;
40991;SDS011;29633;49.168;9.848;2022-08-19T12:40:59;11.48;;;10.35;;
40991;SDS011;29633;49.168;9.848;2022-08-19T12:43:26;11.55;;;10.52;;
40991;SDS011;29633;49.168;9.848;2022-08-19T12:45:52;11.75;;;10.68;;
40991;SDS011;29633;49.168;9.848;2022-08-19T12:48:18;11.18;;;10.27;;
40991;SDS011;29633;49.168;9.848;2022-08-19T12:50:44;11.52;;;10.18;;
40991;SDS011;29633;49.168;9.848;2022-08-19T12:53:10;11.55;;;10.25;;
40991;SDS011;29633;49.168;9.848;2022-08-19T12:55:37;10.25;;;9.15;;
40991;SDS011;29633;49.168;9.848;2022-08-19T12:58:03;10.13;;;9.13;;
40991;SDS011;29633;49.168;9.848;2022-08-19T13:00:29;9.65;;;8.85;;
40991;SDS011;29633;49.168;9.848;2022-08-19T13:02:57;9.40;;;8.40;;
40991;SDS011;29633;49.168;9.848;2022-08-19T13:05:25;9.25;;;8.35;;
40991;SDS011;29633;49.168;9.848;2022-08-19T13:07:54;7.50;;;6.88;;
40991;SDS011;29633;49.168;9.848;2022-08-19T13:10:29;5.95;;;5.43;;
40991;SDS011;29633;49.168;9.848;2022-08-19T13:13:00;4.68;;;4.28;;
40991;SDS011;29633;49.168;9.848;2022-08-19T13:15:29;5.53;;;4.78;;
40991;SDS011;29633;49.168;9.848;2022-08-19T13:18:04;4.78;;;4.28;;
40991;SDS011;29633;49.168;9.848;2022-08-19T13:20:30;4.50;;;4.10;;
40991;SDS011;29633;49.168;9.848;2022-08-19T13:22:56;4.72;;;4.32;;
40991;SDS011;29633;49.168;9.848;2022-08-19T13:25:22;4.38;;;4.07;;
40991;SDS011;29633;49.168;9.848;2022-08-19T13:27:48;5.70;;;4.18;;
40991;SDS011;29633;49.168;9.848;2022-08-19T13:30:16;4.43;;;4.07;;
40991;SDS011;29633;49.168;9.848;2022-08-19T13:33:01;4.30;;;3.95;;
40991;SDS011;29633;49.168;9.848;2022-08-19T13:35:39;4.35;;;3.95;;
40991;SDS011;29633;49.168;9.848;2022-08-19T13:38:22;4.43;;;4.03;;
40991;SDS011;29633;49.168;9.848;2022-08-19T13:40:49;3.88;;;3.58;;
40991;SDS011;29633;49.168;9.848;2022-08-19T13:43:18;4.20;;;3.90;;
40991;SDS011;29633;49.168;9.848;2022-08-19T13:45:51;4.75;;;4.35;;
40991;SDS011;29633;49.168;9.848;2022-08-19T13:48:20;4.15;;;3.83;;
40991;SDS011;29633;49.168;9.848;2022-08-19T13:50:47;4.15;;;3.85;;
40991;SDS011;29633;49.168;9.848;2022-08-19T13:53:13;5.00;;;4.60;;
40991;SDS011;29633;49.168;9.848;2022-08-19T13:55:41;4.30;;;4.00;;
40991;SDS011;29633;49.168;9.848;2022-08-19T13:58:09;4.40;;;4.10;;
40991;SDS011;29633;49.168;9.848;2022-08-19T14:00:37;4.18;;;3.85;;
40991;SDS011;29633;49.168;9.848;2022-08-19T14:03:07;4.80;;;4.30;;
40991;SDS011;29633;49.168;9.848;2022-08-19T14:05:33;4.53;;;4.13;;
40991;SDS011;29633;49.168;9.848;2022-08-19T14:08:01;4.65;;;4.30;;
40991;SDS011;29633;49.168;9.848;2022-08-19T14:10:27;6.30;;;5.70;;
40991;SDS011;29633;49.168;9.848;2022-08-19T14:12:55;5.63;;;5.22;;
40991;SDS011;29633;49.168;9.848;2022-08-19T14:15:23;6.40;;;5.57;;
40991;SDS011;29633;49.168;9.848;2022-08-19T14:17:50;5.85;;;5.35;;
40991;SDS011;29633;49.168;9.848;2022-08-19T14:20:16;6.40;;;5.80;;
40991;SDS011;29633;49.168;9.848;2022-08-19T14:22:43;6.47;;;5.85;;
40991;SDS011;29633;49.168;9.848;2022-08-19T14:25:11;5.97;;;5.40;;
40991;SDS011;29633;49.168;9.848;2022-08-19T14:27:40;7.63;;;5.67;;
40991;SDS011;29633;49.168;9.848;2022-08-19T14:30:09;6.90;;;5.63;;
40991;SDS011;29633;49.168;9.848;2022-08-19T14:32:38;5.93;;;5.43;;
40991;SDS011;29633;49.168;9.848;2022-08-19T14:35:05;6.88;;;6.05;;
40991;SDS011;29633;49.168;9.848;2022-08-19T14:37:32;5.82;;;5.25;;
40991;SDS011;29633;49.168;9.848;2022-08-19T14:39:59;5.32;;;4.93;;
40991;SDS011;29633;49.168;9.848;2022-08-19T14:42:26;5.03;;;4.63;;
40991;SDS011;29633;49.168;9.848;2022-08-19T14:44:51;6.70;;;4.95;;
40991;SDS011;29633;49.168;9.848;2022-08-19T14:47:17;5.13;;;4.63;;
40991;SDS011;29633;49.168;9.848;2022-08-19T14:49:43;5.78;;;4.97;;
40991;SDS011;29633;49.168;9.848;2022-08-19T14:52:09;5.45;;;5.05;;
40991;SDS011;29633;49.168;9.848;2022-08-19T14:54:35;5.57;;;5.07;;
40991;SDS011;29633;49.168;9.848;2022-08-19T14:57:00;5.40;;;4.90;;
40991;SDS011;29633;49.168;9.848;2022-08-19T14:59:26;5.57;;;4.95;;